Flight Track Log - Related Links

Times and Time Zones

All times are in EST time to prevent confusion due to time zone crossing. See the ASQ5740 flight status page for this flight to view local times or setup timezone preferences in your user account.

Time Position Orientation Groundspeed Altitude Reporting Facility
EST Latitude Longitude Course Direction KTS km/h feet Rate Location/Type
Sun 02:57:18 PM 35.0067 -82.1394 73° East 264 489 6.300  Level Atlanta Center
Sun 02:58:18 PM 35.0642 -82.0847 38° Northeast 264 489 8.500 2.150 Climbing Atlanta Center
Sun 02:59:00 PM 35.2811 -81.7961 71° East  Level Estimated
Sun 02:59:18 PM 35.1239 -82.0225 40° Northeast 269 499 10.600  Level Atlanta Center
Sun 03:00:00 PM 35.3740 -81.7402 26° Northeast  Level FlightAware Approximate
Sun 03:00:18 PM 35.1831 -81.9525 44° Northeast 280 518 12.600  Level Atlanta Center
Sun 03:01:00 PM 35.4505 -81.6544 73° East  Level Estimated
Sun 03:01:18 PM 35.2528 -81.8769 41° Northeast 306 566 13.500  Level Atlanta Center
Sun 03:02:18 PM 35.3047 -81.7586 62° Northeast 362 671 14.500 1.000 Climbing Atlanta Center
Sun 03:03:18 PM 35.3589 -81.6347 62° Northeast 375 695 15.500 1.000 Climbing Atlanta Center
Sun 03:04:18 PM 35.4125 -81.5083 62° Northeast 400 740 16.500 1.050 Climbing Atlanta Center
Sun 03:05:18 PM 35.4661 -81.3792 63° Northeast 414 766 17.600 900 Climbing Atlanta Center
Sun 03:06:18 PM 35.5256 -81.2292 64° Northeast 425 787 18.300 850 Climbing Atlanta Center
Sun 03:07:18 PM 35.5850 -81.0944 61° Northeast 431 798 19.300 1.000 Climbing Atlanta Center
Sun 03:08:18 PM 35.6419 -80.9594 63° Northeast 436 808 20.300 1.000 Climbing Atlanta Center
Sun 03:09:18 PM 35.6992 -80.8244 62° Northeast 436 808 21.300 1.000 Climbing Atlanta Center
Sun 03:10:18 PM 35.7558 -80.6864 63° Northeast 441 816 22.300 850 Climbing Atlanta Center
Sun 03:11:18 PM 35.8125 -80.5486 63° Northeast 441 816 23.000 350 Climbing Atlanta Center
Sun 03:12:18 PM 35.8711 -80.4050 63° Northeast 446 826 23.000 550 Level Atlanta Center
Sun 03:13:18 PM 35.9292 -80.2589 64° Northeast 457 847 24.100 609 Climbing Atlanta Center
Sun 03:15:35 PM 36.0600 -79.9522 62° Northeast 452 837 25.000 277 Climbing Washington Center
Sun 03:16:33 PM 36.1378 -79.8150 55° Northeast 469 869 25.000  Level Washington Center
Sun 03:17:33 PM 36.2244 -79.6628 55° Northeast 494 914 25.000  Level Washington Center
Sun 03:18:34 PM 36.2956 -79.5375 55° Northeast 494 914 25.000  Level Washington Center
Sun 03:19:33 PM 36.3728 -79.4047 54° Northeast 494 914 25.000  Level Washington Center
Sun 03:20:33 PM 36.4569 -79.2486 56° Northeast 488 904 25.000  Level Washington Center
Sun 03:21:34 PM 36.5167 -79.1406 55° Northeast 482 893 25.000  Level Washington Center
Sun 03:22:35 PM 36.6022 -78.9942 54° Northeast 476 882 25.000  Level Washington Center
Sun 03:23:35 PM 36.6836 -78.8397 57° Northeast 476 882 25.000  Level Washington Center
Sun 03:24:33 PM 36.7517 -78.7156 56° Northeast 483 895 25.000 -102 Level Washington Center
Sun 03:25:33 PM 36.8261 -78.5811 55° Northeast 483 895 24.800 -893 Descending Washington Center
Sun 03:26:34 PM 36.9006 -78.4411 56° Northeast 448 830 23.200 -1.400 Descending Washington Center
Sun 03:27:33 PM 36.9614 -78.3289 56° Northeast 437 810 22.000 -605 Descending Washington Center
Sun 03:28:33 PM 37.0456 -78.2019 50° Northeast 431 798 22.000  Level Washington Center
Sun 03:29:35 PM 37.1369 -78.1294 32° Northeast 402 745 22.000  Level Washington Center
Sun 03:30:33 PM 37.2322 -78.0569 31° Northeast 402 745 22.000  Level Washington Center
Sun 03:31:33 PM 37.3275 -77.9842 31° Northeast 397 735 22.000  Level Washington Center
Sun 03:32:34 PM 37.4208 -77.9139 31° Northeast 392 726 22.000  Level Washington Center
Sun 03:33:35 PM 37.5119 -77.8408 32° Northeast 392 726 22.000 -857 Level Washington Center
Sun 03:34:33 PM 37.6069 -77.7833 26° Northeast 392 726 20.300 -1.780 Descending Washington Center
Sun 03:35:33 PM 37.6975 -77.7283 26° Northeast 369 684 18.500 -1.537 Descending Washington Center
Sun 03:36:34 PM 37.7839 -77.6781 25° Northeast 356 660 17.200 -1.537 Descending Washington Center
Sun 03:37:34 PM 37.8661 -77.6303 25° Northeast 335 621 15.400 -1.785 Descending Washington Center
Sun 03:38:35 PM 37.9461 -77.5850 24° Northeast 323 599 13.600 -1.785 Descending Washington Center
Sun 03:39:35 PM 38.0219 -77.5397 25° Northeast 308 570 11.800 -1.729 Descending Washington Center
Sun 03:40:33 PM 38.0956 -77.5019 22° Northeast 302 560 10.200 -915 Descending Washington Center
Sun 03:41:33 PM 38.1625 -77.4772 16° North 280 518 10.000 -49 Descending Washington Center
Sun 03:42:35 PM 38.2294 -77.4764 North 251 465 10.100 -49 Climbing Washington Center
Sun 03:43:35 PM 38.2919 -77.4753 North 237 439 9.900 -1.220 Descending Washington Center
Sun 03:44:33 PM 38.3567 -77.4742 North 232 430 7.700 -1.400 Descending Washington Center
Sun 03:45:35 PM 38.4256 -77.4681 North 237 439 7.100 -590 Descending Washington Center
Sun 03:46:35 PM 38.4922 -77.4697 359° North 237 439 6.500 -661 Descending Washington Center
Sun 03:47:33 PM 38.5589 -77.4661 North 237 439 5.800 -1.068 Descending Washington Center
Sun 03:48:33 PM 38.6236 -77.4650 North 231 428 4.400 -971 Descending Washington Center
Sun 03:49:18 PM 38.6667 -77.4667 358° North 194 359 4.100 -170 Descending Potomac TRACON
Sun 03:50:19 PM 38.7167 -77.4667 360° North 175 323 4.100 -50 Level Potomac TRACON
Sun 03:51:19 PM 38.7667 -77.4667 360° North 176 327 4.000 -574 Descending Potomac TRACON
Sun 03:52:14 PM 38.8167 -77.4667 360° North 171 317 3.000 -1.043 Descending Potomac TRACON
Sun 03:53:14 PM 38.8667 -77.4667 360° North 174 322 2.000 -900 Descending Potomac TRACON
Sun 03:54:14 PM 38.9000 -77.4667 360° North 134 248 1.200 -800 Descending Potomac TRACON

Login

Don't have an account? Register now (free) for customized features, flight alerts, and more!